page 3180 of 1009973 registered users

eBook PostsUsers

  1. 0michaellin_ch registered @ 2011-05-10 03:28:14, last login @ 2011-05-10 03:28:14
  2. 0suffer42 registered @ 2011-05-10 03:32:32, last login @ 2011-05-10 03:32:32
  3. 0daneen registered @ 2011-05-10 03:35:32, last login @ 2011-05-10 03:35:32
  4. 0manuelgp registered @ 2011-05-10 03:46:33, last login @ 2011-05-10 03:46:33
  5. 0ellisa registered @ 2011-05-10 03:48:32, last login @ 2011-05-10 03:57:03
  6. 0rppellet registered @ 2011-05-10 03:50:45, last login @ 2011-05-10 03:50:45
  7. 0sujin registered @ 2011-05-10 03:50:48, last login @ 2011-05-10 03:53:03
  8. 0neha_charming06 registered @ 2011-05-10 03:53:19, last login @ 2011-05-10 03:53:19
  9. 0guxianming registered @ 2011-05-10 03:53:21, last login @ 2011-05-10 03:54:54
  10. 0samanthaliao registered @ 2011-05-10 03:54:34, last login @ 2011-05-10 03:54:34
  11. 0karinkyu registered @ 2011-05-10 04:00:06, last login @ 2011-05-10 04:00:06
  12. 0yuhangyfy registered @ 2011-05-10 04:00:24, last login @ 2011-05-10 04:00:24
  13. 0limiao711 registered @ 2011-05-10 04:00:31, last login @ 2011-05-10 04:00:31
  14. 0ssk837421 registered @ 2011-05-10 04:01:38, last login @ 2011-05-10 04:01:38
  15. 0bestabz registered @ 2011-05-10 04:02:36, last login @ 2011-05-10 04:02:36
  16. 0acute_emt registered @ 2011-05-10 04:02:57, last login @ 2011-05-10 04:05:00
  17. 0fansite registered @ 2011-05-10 04:06:18, last login @ 2011-05-10 04:06:18
  18. 0hiwatarikl registered @ 2011-05-10 04:07:53, last login @ 2011-05-10 04:07:53
  19. 0drcbj registered @ 2011-05-10 04:08:04, last login @ 2011-05-10 04:08:04
  20. 0celili registered @ 2011-05-10 04:08:40, last login @ 2011-05-10 04:08:40
  21. 0batboyrobin registered @ 2011-05-10 04:09:13, last login @ 2011-05-10 04:09:13
  22. 0spacewalkerwwh registered @ 2011-05-10 04:10:13, last login @ 2011-05-10 04:10:13
  23. 0gsnunes registered @ 2011-05-10 04:12:29, last login @ 2011-05-10 04:12:29
  24. 0blackbear003 registered @ 2011-05-10 04:13:20, last login @ 2011-05-10 04:13:20
  25. 0temporarylol registered @ 2011-05-10 04:14:15, last login @ 2011-05-10 04:16:34
  26. 0suntenxiaox registered @ 2011-05-10 04:16:50, last login @ 2011-05-10 04:16:50
  27. 0dimaz_mbs registered @ 2011-05-10 04:19:13, last login @ 2011-05-10 04:19:13
  28. 0YINXUEHUI registered @ 2011-05-10 04:23:06, last login @ 2011-05-10 04:23:06
  29. 0geoccp registered @ 2011-05-10 04:23:14, last login @ 2011-05-10 04:24:51
  30. 0eddiesaputra registered @ 2011-05-10 04:24:29, last login @ 2011-05-10 04:24:29
  31. 0glorydelle registered @ 2011-05-10 04:25:05, last login @ 2011-05-10 04:25:24
  32. 0yrm1234 registered @ 2011-05-10 04:25:15, last login @ 2011-05-10 04:25:15
  33. 0gregbooks registered @ 2011-05-10 04:26:50, last login @ 2011-05-10 04:28:08
  34. 0jiutouliao registered @ 2011-05-10 04:28:32, last login @ 2011-05-10 04:28:32
  35. 0baobaochong registered @ 2011-05-10 04:29:05, last login @ 2011-05-10 04:29:05
  36. 0qcz1987 registered @ 2011-05-10 04:30:11, last login @ 2011-05-10 04:30:11
  37. 0nag500055 registered @ 2011-05-10 04:33:57, last login @ 2011-05-10 04:34:52
  38. 0liangwang registered @ 2011-05-10 04:34:32, last login @ 2011-05-10 04:34:32
  39. 0abhi_nath registered @ 2011-05-10 04:37:30, last login @ 2011-05-10 04:37:30
  40. 0fanren registered @ 2011-05-10 04:44:37, last login @ 2011-05-10 04:44:37
  41. 0Wevemydrare registered @ 2011-05-10 04:45:55, last login @ 2011-05-10 04:45:55
  42. 0parveenbhasin registered @ 2011-05-10 04:48:06, last login @ 2011-05-10 04:48:06
  43. 0Emmath registered @ 2011-05-10 04:53:20, last login @ 2011-05-10 04:53:20
  44. 0xukjhappy registered @ 2011-05-10 04:53:33, last login @ 2011-05-10 04:53:54
  45. 0mavericker registered @ 2011-05-10 04:55:12, last login @ 2011-05-10 04:55:12
  46. 0sanchit186 registered @ 2011-05-10 04:57:01, last login @ 2011-05-10 04:57:01
  47. 0acerguest2007 registered @ 2011-05-10 05:04:20, last login @ 2011-05-10 05:04:20
  48. 0yamazingpowerru registered @ 2011-05-10 05:05:47, last login @ 2011-05-10 05:05:47
  49. 0fkdlqm registered @ 2011-05-10 05:08:47, last login @ 2011-05-10 05:08:47
  50. 0Deejayplus registered @ 2011-05-10 05:14:34, last login @ 2011-05-10 05:14:34
  51. 0capjadoru registered @ 2011-05-10 05:15:10, last login @ 2011-05-10 05:15:10
  52. 0tcloy registered @ 2011-05-10 05:19:22, last login @ 2011-05-10 05:19:22
  53. 0Leblancvx registered @ 2011-05-10 05:20:02, last login @ 2011-05-10 05:20:02
  54. 0Stillann65 registered @ 2011-05-10 05:21:00, last login @ 2011-05-10 05:21:00
  55. 0EndusyPseudge registered @ 2011-05-10 05:21:15, last login @ 2011-05-10 05:21:15
  56. 0dongmeigan registered @ 2011-05-10 05:27:28, last login @ 2011-05-10 05:27:28
  57. 0lrz12341234 registered @ 2011-05-10 05:31:13, last login @ 2011-05-10 05:31:13
  58. 0achaiciouteqc48 registered @ 2011-05-10 05:42:32, last login @ 2011-05-10 05:42:32
  59. 0guosongzai registered @ 2011-05-10 05:45:41, last login @ 2011-05-10 05:45:41
  60. 0daavood registered @ 2011-05-10 05:47:16, last login @ 2011-05-10 06:00:37
  61. 0burno07 registered @ 2011-05-10 05:49:40, last login @ 2011-05-10 05:49:40
  62. 0pisces25 registered @ 2011-05-10 05:49:45, last login @ 2011-05-10 05:49:45
  63. 0lhlatimer registered @ 2011-05-10 05:51:21, last login @ 2011-05-10 05:51:21
  64. 0sanei05 registered @ 2011-05-10 05:52:14, last login @ 2011-05-10 05:53:02
  65. 0farshhomi registered @ 2011-05-10 05:52:24, last login @ 2011-05-10 05:52:24
  66. 0joaoferreira87 registered @ 2011-05-10 05:53:18, last login @ 2011-05-10 05:53:18
  67. 0jreinholz registered @ 2011-05-10 06:02:31, last login @ 2011-05-10 06:02:31
  68. 0pearlsantos registered @ 2011-05-10 06:05:04, last login @ 2011-05-10 06:05:04
  69. 0gouravbaldewa registered @ 2011-05-10 06:10:41, last login @ 2011-05-10 06:10:41
  70. 0linqing99 registered @ 2011-05-10 06:13:50, last login @ 2011-05-10 06:15:52
  71. 0vibhati97 registered @ 2011-05-10 06:14:03, last login @ 2011-05-10 06:14:03
  72. 0jo1898 registered @ 2011-05-10 06:14:37, last login @ 2011-05-10 06:14:37
  73. 0NemeDaype registered @ 2011-05-10 06:17:05, last login @ 2011-05-10 06:17:05
  74. 0staceyeiy registered @ 2011-05-10 06:19:32, last login @ 2011-05-10 06:19:32
  75. 0anvinjohnson registered @ 2011-05-10 06:19:59, last login @ 2011-05-10 06:22:07
  76. 0conniefay1 registered @ 2011-05-10 06:21:33, last login @ 2011-05-10 06:21:33
  77. 0srivathshan registered @ 2011-05-10 06:26:01, last login @ 2011-05-10 06:26:01
  78. 041151436 registered @ 2011-05-10 06:26:19, last login @ 2011-05-10 06:26:19
  79. 0Ponokyo registered @ 2011-05-10 06:26:39, last login @ 2011-05-10 06:26:39
  80. 0lyhistory registered @ 2011-05-10 06:28:08, last login @ 2011-05-10 06:28:08
  81. 0lijia2000boy registered @ 2011-05-10 06:29:01, last login @ 2011-05-10 06:29:01
  82. 0multiplesite registered @ 2011-05-10 06:33:51, last login @ 2011-05-10 06:33:51
  83. 0outlillawaire registered @ 2011-05-10 06:37:48, last login @ 2011-05-10 06:37:48
  84. 0xiao66 registered @ 2011-05-10 06:46:04, last login @ 2011-05-10 06:46:04
  85. 0fakename registered @ 2011-05-10 06:49:28, last login @ 2011-05-10 06:49:28
  86. 0waseemjhd registered @ 2011-05-10 06:50:18, last login @ 2011-05-10 06:59:02
  87. 0Joss1968 registered @ 2011-05-10 06:54:44, last login @ 2011-05-10 06:54:44
  88. 0riki12345 registered @ 2011-05-10 06:54:51, last login @ 2011-05-10 06:55:42
  89. 0meghna123 registered @ 2011-05-10 06:56:00, last login @ 2011-05-10 06:56:00
  90. 0Priscillaefetus registered @ 2011-05-10 06:57:27, last login @ 2011-05-10 06:58:21
  91. 0Romin24 registered @ 2011-05-10 06:59:43, last login @ 2011-05-10 06:59:43
  92. 0zqc901109 registered @ 2011-05-10 07:02:58, last login @ 2011-05-10 07:03:21
  93. 0ngkluan registered @ 2011-05-10 07:04:23, last login @ 2011-05-10 07:04:42
  94. 0kudrat registered @ 2011-05-10 07:04:57, last login @ 2011-05-10 07:04:57
  95. 0ACP registered @ 2011-05-10 07:11:56, last login @ 2011-05-10 07:11:56
  96. 0dylt registered @ 2011-05-10 07:12:01, last login @ 2011-05-10 07:12:01
  97. 0xcreativepoohbearqj registered @ 2011-05-10 07:13:03, last login @ 2011-05-10 07:13:03
  98. 0bettylai registered @ 2011-05-10 07:17:22, last login @ 2011-05-10 07:17:22
  99. 0zayhtet registered @ 2011-05-10 07:18:30, last login @ 2011-05-10 07:18:30
  100. 0symbol registered @ 2011-05-10 07:20:40, last login @ 2011-05-10 07:55:59
  101. 0DavidZhang registered @ 2011-05-10 07:21:32, last login @ 2011-05-10 07:21:32

More...

[3190] [3189] [3188] [3187] [3186] [3185] [3184] [3183] [3182] [3181] [3180] [3179] [3178] [3177] [3176] [3175] [3174] [3173] [3172] [3171] ...[1]
Back to Top